createdAt,value
2019-04-14T00:00:25.079Z,82.34
2019-04-14T00:01:24.525Z,82.14
2019-04-14T00:02:25.051Z,81.93
2019-04-14T00:03:24.513Z,81.93
2019-04-14T00:04:24.863Z,81.51
2019-04-14T00:05:25.612Z,81.41
2019-04-14T00:06:24.464Z,81.51
2019-04-14T00:07:25.477Z,80.99
2019-04-14T00:08:24.460Z,80.68
2019-04-14T00:09:25.162Z,80.99
2019-04-14T00:10:24.716Z,81.30
2019-04-14T00:11:25.824Z,80.89
2019-04-14T00:12:25.144Z,80.79
2019-04-14T00:13:24.402Z,80.68
2019-04-14T00:14:25.220Z,80.58
2019-04-14T00:15:50.301Z,80.68
2019-04-14T00:16:24.911Z,80.89
2019-04-14T00:17:39.258Z,80.99
2019-04-14T00:18:25.143Z,80.99
2019-04-14T00:19:28.463Z,80.99
2019-04-14T00:20:24.995Z,81.35
2019-04-14T00:21:26.099Z,81.51
2019-04-14T00:22:40.559Z,81.56
2019-04-14T00:23:26.127Z,81.45
2019-04-14T00:24:24.896Z,81.30
2019-04-14T00:25:26.203Z,81.20
2019-04-14T00:26:24.767Z,81.30
2019-04-14T00:27:24.369Z,80.99
2019-04-14T00:28:25.006Z,80.68
2019-04-14T00:29:24.769Z,80.58
2019-04-14T00:30:25.174Z,80.68
2019-04-14T00:31:24.209Z,80.37
2019-04-14T00:32:24.838Z,80.37
2019-04-14T00:33:24.288Z,80.37
2019-04-14T00:34:24.559Z,80.27
2019-04-14T00:35:25.587Z,80.41
2019-04-14T00:36:26.104Z,80.31
2019-04-14T00:37:25.176Z,80.41
2019-04-14T00:38:24.398Z,80.73
2019-04-14T00:39:25.027Z,81.04
2019-04-14T00:40:26.986Z,80.55
2019-04-14T00:41:37.396Z,80.87
2019-04-14T00:42:25.610Z,81.28
2019-04-14T00:43:24.716Z,81.49
2019-04-14T00:44:25.439Z,81.38
2019-04-14T00:45:36.107Z,80.97
2019-04-14T00:46:26.216Z,81.21
2019-04-14T00:47:24.623Z,81.32
2019-04-14T00:48:25.778Z,81.21
2019-04-14T00:49:24.753Z,81.52
2019-04-14T00:50:24.003Z,81.84
2019-04-14T00:51:24.531Z,81.84
2019-04-14T00:52:25.428Z,81.52
2019-04-14T00:53:25.314Z,81.52
2019-04-14T00:54:24.015Z,81.42
2019-04-14T00:55:24.972Z,81.42
2019-04-14T00:56:25.632Z,81.73
2019-04-14T00:57:24.735Z,81.94
2019-04-14T00:58:25.737Z,81.73
2019-04-14T00:59:24.923Z,81.32
2019-04-14T01:00:23.884Z,81.52
2019-04-14T01:01:24.384Z,81.56
2019-04-14T01:02:23.864Z,81.56
2019-04-14T01:03:24.428Z,81.84
2019-04-14T01:04:25.063Z,82.15
2019-04-14T01:05:24.180Z,81.52
2019-04-14T01:06:25.069Z,81.42
2019-04-14T01:07:24.183Z,81.73
2019-04-14T01:08:24.842Z,81.73
2019-04-14T01:09:24.805Z,81.42
2019-04-14T01:10:23.796Z,81.21
2019-04-14T01:11:24.816Z,81.01
2019-04-14T01:12:23.752Z,81.04
2019-04-14T01:13:24.618Z,80.94
2019-04-14T01:14:23.741Z,81.25
2019-04-14T01:15:24.842Z,81.67
2019-04-14T01:16:25.003Z,81.56
2019-04-14T01:17:24.447Z,81.46
2019-04-14T01:18:23.697Z,81.15
2019-04-14T01:19:24.406Z,80.90
2019-04-14T01:20:25.843Z,80.90
2019-04-14T01:21:24.212Z,80.59
2019-04-14T01:22:24.836Z,80.94
2019-04-14T01:23:23.999Z,80.94
2019-04-14T01:24:24.897Z,80.80
2019-04-14T01:25:23.895Z,80.80
2019-04-14T01:26:24.592Z,80.38
2019-04-14T01:27:23.930Z,80.28
2019-04-14T01:28:24.373Z,80.28
2019-04-14T01:29:23.580Z,80.18
2019-04-14T01:30:24.143Z,80.28
2019-04-14T01:31:23.579Z,79.97
2019-04-14T01:32:24.073Z,79.80
2019-04-14T01:33:23.597Z,79.90
2019-04-14T01:34:23.939Z,80.00
2019-04-14T01:35:23.529Z,80.11
2019-04-14T01:36:23.602Z,80.11
2019-04-14T01:37:24.684Z,80.21
2019-04-14T01:38:23.490Z,80.63
2019-04-14T01:39:24.314Z,80.83
2019-04-14T01:40:23.489Z,80.87
2019-04-14T01:41:23.976Z,80.66
2019-04-14T01:42:24.495Z,80.77
2019-04-14T01:43:23.535Z,80.66
2019-04-14T01:44:24.237Z,80.77
2019-04-14T01:45:23.447Z,80.98
2019-04-14T01:46:28.061Z,81.08
2019-04-14T01:47:24.894Z,81.08
2019-04-14T01:48:23.667Z,81.08
2019-04-14T01:49:24.618Z,81.18
2019-04-14T01:50:23.516Z,80.87
2019-04-14T01:51:24.549Z,81.08
2019-04-14T01:52:23.337Z,81.29
2019-04-14T01:53:23.325Z,81.18
2019-04-14T01:54:23.538Z,81.29
2019-04-14T01:55:24.243Z,81.18
2019-04-14T01:56:23.295Z,81.12
2019-04-14T01:57:24.290Z,81.32
2019-04-14T01:58:23.275Z,81.43
2019-04-14T01:59:24.141Z,81.60
2019-04-14T02:02:35.763Z,81.32
2019-04-14T02:03:36.662Z,81.43
2019-04-14T02:04:35.525Z,81.53
2019-04-14T02:05:36.349Z,81.84
2019-04-14T02:06:35.618Z,81.84
2019-04-14T02:07:35.983Z,81.84
2019-04-14T02:08:35.360Z,81.84
2019-04-14T02:09:35.767Z,81.74
2019-04-14T02:10:35.018Z,81.63
2019-04-14T02:11:35.559Z,81.43
2019-04-14T02:12:34.989Z,81.12
2019-04-14T02:13:35.462Z,80.91
2019-04-14T02:14:36.465Z,80.80
2019-04-14T02:15:35.245Z,80.80
2019-04-14T02:16:41.919Z,80.91
2019-04-14T02:17:37.078Z,81.43
2019-04-14T02:18:36.104Z,81.63
2019-04-14T02:19:35.005Z,81.53
2019-04-14T02:20:36.047Z,81.32
2019-04-14T02:21:36.590Z,81.53
2019-04-14T02:22:35.594Z,81.53
2019-04-14T02:23:34.866Z,81.22
2019-04-14T02:24:35.224Z,81.01
2019-04-14T02:25:35.940Z,81.12
2019-04-14T02:26:35.150Z,81.12
2019-04-14T02:27:35.983Z,80.91
2019-04-14T02:28:35.367Z,81.01
2019-04-14T02:29:36.110Z,80.70
2019-04-14T02:30:41.467Z,80.80
2019-04-14T02:32:03.591Z,80.70
2019-04-14T02:33:03.693Z,80.80
2019-04-14T02:34:00.703Z,80.80
2019-04-14T02:35:08.191Z,81.01
2019-04-14T02:36:05.668Z,81.01
2019-04-14T02:37:08.391Z,81.12
2019-04-14T02:38:18.209Z,80.70
2019-04-14T02:40:03.892Z,80.94
2019-04-14T02:41:02.754Z,81.36
2019-04-14T02:43:08.435Z,81.57
2019-04-14T02:44:04.635Z,81.26
2019-04-14T02:44:59.921Z,81.36
2019-04-14T02:46:10.365Z,81.26
2019-04-14T02:47:12.966Z,81.36
2019-04-14T02:48:29.083Z,81.36
2019-04-14T02:49:08.325Z,81.46
2019-04-14T02:50:08.775Z,81.46
2019-04-14T02:51:06.141Z,81.36
2019-04-14T02:52:09.663Z,81.46
2019-04-14T02:54:59.854Z,81.57
2019-04-14T02:56:08.248Z,81.57
2019-04-14T02:57:02.081Z,81.46
2019-04-14T02:58:01.727Z,81.57
2019-04-14T02:58:58.724Z,81.46
2019-04-14T03:00:09.025Z,81.36
2019-04-14T03:02:20.066Z,81.46
2019-04-14T03:03:05.913Z,81.36
2019-04-14T03:03:58.500Z,81.26
2019-04-14T03:05:02.478Z,81.36
2019-04-14T03:06:08.753Z,81.26
2019-04-14T03:08:04.009Z,81.15
2019-04-14T03:09:52.469Z,81.05
2019-04-14T03:11:03.006Z,81.15
2019-04-14T03:12:01.325Z,81.05
2019-04-14T03:13:08.744Z,81.15
2019-04-14T03:14:06.332Z,81.05
2019-04-14T03:15:01.328Z,81.15
2019-04-14T03:16:03.533Z,81.15
2019-04-14T03:17:14.682Z,81.05
2019-04-14T03:18:18.830Z,81.15
2019-04-14T03:18:57.898Z,81.15
2019-04-14T03:20:13.706Z,80.84
2019-04-14T03:21:03.518Z,80.84
2019-04-14T03:22:17.973Z,80.84
2019-04-14T03:23:00.795Z,80.88
2019-04-14T03:24:06.708Z,81.19
2019-04-14T03:24:47.616Z,81.19
2019-04-14T03:25:57.427Z,81.09
2019-04-14T03:27:04.911Z,80.88
2019-04-14T03:28:03.586Z,80.98
2019-04-14T03:28:56.750Z,81.09
2019-04-14T03:30:17.458Z,81.19
2019-04-14T03:32:14.239Z,81.19
2019-04-14T03:33:32.054Z,81.29
2019-04-14T03:35:27.513Z,81.29
2019-04-14T03:37:59.496Z,81.60
2019-04-14T03:39:57.295Z,81.50
2019-04-14T03:41:13.728Z,81.50
2019-04-14T03:42:01.597Z,81.71
2019-04-14T03:43:16.731Z,81.40
2019-04-14T03:43:54.554Z,81.19
2019-04-14T03:45:06.922Z,81.19
2019-04-14T03:48:40.086Z,80.98
2019-04-14T03:50:13.678Z,80.88
2019-04-14T03:51:03.809Z,80.88
2019-04-14T03:51:57.783Z,81.09
2019-04-14T03:53:05.906Z,81.19
2019-04-14T03:54:52.872Z,81.19
2019-04-14T03:55:43.322Z,81.29
2019-04-14T03:56:35.650Z,81.09
2019-04-14T03:57:34.546Z,81.19
2019-04-14T03:58:33.911Z,81.19
2019-04-14T03:59:34.608Z,81.29
2019-04-14T04:00:33.870Z,81.19
2019-04-14T04:01:34.548Z,81.40
2019-04-14T04:02:33.850Z,81.33
2019-04-14T04:03:34.634Z,81.54
2019-04-14T04:04:33.871Z,81.54
2019-04-14T04:05:34.517Z,81.43
2019-04-14T04:06:34.098Z,81.65
2019-04-14T04:07:34.338Z,81.75
2019-04-14T04:08:33.788Z,81.54
2019-04-14T04:09:34.359Z,81.43
2019-04-14T04:10:33.765Z,81.43
2019-04-14T04:11:34.471Z,81.75
2019-04-14T04:12:33.763Z,81.85
2019-04-14T04:13:34.527Z,81.85
2019-04-14T04:14:33.727Z,81.75
2019-04-14T04:15:34.291Z,81.96
2019-04-14T04:16:33.704Z,82.17
2019-04-14T04:17:34.156Z,82.17
2019-04-14T04:18:44.735Z,82.06
2019-04-14T04:19:35.830Z,82.17
2019-04-14T04:20:34.992Z,82.23
2019-04-14T04:21:33.664Z,82.03
2019-04-14T04:22:34.718Z,81.65
2019-04-14T04:23:33.635Z,81.23
2019-04-14T04:24:35.013Z,81.43
2019-04-14T04:25:33.644Z,81.75
2019-04-14T04:26:34.385Z,81.54
2019-04-14T04:27:35.144Z,81.23
2019-04-14T04:28:34.164Z,81.33
2019-04-14T04:29:33.564Z,81.33
2019-04-14T04:30:34.089Z,81.68
2019-04-14T04:31:35.029Z,82.20
2019-04-14T04:32:34.067Z,82.41
2019-04-14T04:33:34.742Z,82.31
2019-04-14T04:34:33.906Z,82.51
2019-04-14T04:35:34.647Z,82.41
2019-04-14T04:36:33.521Z,82.41
2019-04-14T04:37:34.402Z,82.62
2019-04-14T04:38:33.535Z,82.82
2019-04-14T04:39:36.180Z,82.93
2019-04-14T04:40:33.475Z,82.82
2019-04-14T04:41:34.203Z,82.93
2019-04-14T04:42:33.439Z,82.82
2019-04-14T04:43:34.114Z,82.37
2019-04-14T04:44:33.520Z,82.06
2019-04-14T04:45:34.135Z,81.75
2019-04-14T04:46:33.398Z,81.65
2019-04-14T04:47:33.787Z,81.85
2019-04-14T04:48:34.871Z,81.85
2019-04-14T04:49:34.157Z,81.65
2019-04-14T04:50:34.543Z,81.37
2019-04-14T04:51:33.360Z,81.89
2019-04-14T04:52:34.361Z,82.34
2019-04-14T04:53:35.342Z,82.76
2019-04-14T04:54:34.225Z,82.97
2019-04-14T04:55:33.629Z,83.18
2019-04-14T04:56:34.066Z,83.07
2019-04-14T04:57:33.293Z,83.07
2019-04-14T04:58:33.297Z,83.14
2019-04-14T04:59:34.314Z,83.14
2019-04-14T05:00:33.259Z,82.93
2019-04-14T05:01:33.983Z,82.93
2019-04-14T05:02:33.257Z,82.79
2019-04-14T05:03:33.974Z,82.68
2019-04-14T05:04:33.207Z,82.37
2019-04-14T05:05:33.952Z,82.17
2019-04-14T05:06:33.204Z,82.06
2019-04-14T05:07:33.773Z,82.17
2019-04-14T05:08:34.722Z,82.03
2019-04-14T05:09:33.813Z,81.60
2019-04-14T05:10:33.166Z,80.88
2019-04-14T05:11:33.754Z,81.23
2019-04-14T05:12:33.135Z,81.33
2019-04-14T05:13:33.553Z,81.33
2019-04-14T05:14:33.115Z,81.12
2019-04-14T05:15:33.466Z,81.12
2019-04-14T05:16:33.105Z,81.37
2019-04-14T05:17:34.253Z,81.68
2019-04-14T05:18:33.604Z,81.68
2019-04-14T05:19:36.448Z,81.89
2019-04-14T05:20:34.055Z,82.31
2019-04-14T05:21:34.219Z,82.31
2019-04-14T05:22:33.372Z,81.99
2019-04-14T05:23:34.131Z,81.79
2019-04-14T05:24:33.274Z,81.89
2019-04-14T05:25:34.127Z,81.89
2019-04-14T05:26:33.139Z,81.96
2019-04-14T05:27:34.072Z,81.75
2019-04-14T05:28:33.220Z,81.54
2019-04-14T05:29:34.036Z,81.60
2019-04-14T05:30:32.989Z,80.88
2019-04-14T05:31:33.609Z,80.67
2019-04-14T05:32:32.932Z,80.53
2019-04-14T05:33:33.670Z,80.32
2019-04-14T05:34:32.929Z,79.87
2019-04-14T05:35:33.404Z,79.35
2019-04-14T05:36:33.200Z,78.83
2019-04-14T05:37:33.310Z,78.72
2019-04-14T05:38:34.278Z,78.79
2019-04-14T05:39:32.967Z,78.38
2019-04-14T05:40:32.890Z,78.27
2019-04-14T05:41:32.997Z,77.61
2019-04-14T05:42:33.999Z,77.09
2019-04-14T05:43:40.603Z,76.78
2019-04-14T05:44:34.130Z,76.47
2019-04-14T05:45:32.869Z,76.16
2019-04-14T05:46:33.801Z,76.68
2019-04-14T05:47:32.772Z,76.61
2019-04-14T05:48:33.733Z,77.13
2019-04-14T05:49:39.134Z,77.34
2019-04-14T05:50:33.736Z,77.13
2019-04-14T05:51:32.746Z,77.09
2019-04-14T05:52:33.872Z,76.89
2019-04-14T05:53:32.708Z,76.78
2019-04-14T05:54:33.851Z,76.78
2019-04-14T05:55:32.824Z,76.78
2019-04-14T05:56:35.055Z,77.20
2019-04-14T05:57:32.760Z,76.75
2019-04-14T05:58:33.888Z,76.64
2019-04-14T05:59:32.912Z,76.64
2019-04-14T06:00:32.657Z,76.43
2019-04-14T06:01:33.773Z,76.23
2019-04-14T06:02:33.576Z,76.54
2019-04-14T06:03:32.596Z,76.64
2019-04-14T06:04:33.189Z,76.81
2019-04-14T06:05:32.577Z,76.29
2019-04-14T06:06:32.565Z,76.29
2019-04-14T06:07:32.575Z,76.09
2019-04-14T06:08:32.545Z,76.09
2019-04-14T06:09:32.535Z,76.19
2019-04-14T06:10:32.525Z,76.09
2019-04-14T06:11:32.525Z,75.98
2019-04-14T06:12:32.504Z,76.09
2019-04-14T06:13:32.526Z,75.98
2019-04-14T06:14:32.785Z,75.98
2019-04-14T06:15:32.488Z,75.81
2019-04-14T06:16:32.471Z,75.78
2019-04-14T06:17:32.451Z,75.78
2019-04-14T06:18:32.461Z,75.67
2019-04-14T06:19:39.058Z,75.67
2019-04-14T06:20:33.413Z,75.05
2019-04-14T06:21:32.404Z,75.26
2019-04-14T06:22:32.403Z,74.74
2019-04-14T06:23:32.401Z,75.05
2019-04-14T06:24:32.370Z,75.26
2019-04-14T06:25:32.400Z,75.26
2019-04-14T06:26:32.661Z,75.05
2019-04-14T06:27:32.333Z,74.95
2019-04-14T06:28:32.324Z,75.15
2019-04-14T06:29:32.365Z,74.32
2019-04-14T06:30:32.322Z,74.77
2019-04-14T06:31:32.331Z,74.77
2019-04-14T06:32:32.582Z,74.84
2019-04-14T06:33:32.279Z,74.95
2019-04-14T06:34:32.269Z,75.05
2019-04-14T06:35:32.262Z,75.26
2019-04-14T06:36:32.276Z,74.71
2019-04-14T06:37:32.311Z,74.29
2019-04-14T06:38:32.220Z,74.40
2019-04-14T06:39:32.689Z,73.74
2019-04-14T06:40:32.200Z,73.53
2019-04-14T06:41:32.188Z,73.49
2019-04-14T06:42:32.179Z,73.15
2019-04-14T06:43:32.189Z,72.32
2019-04-14T06:44:32.158Z,71.80
2019-04-14T06:45:32.139Z,71.80
2019-04-14T06:46:32.519Z,71.67
2019-04-14T06:47:32.131Z,71.36
2019-04-14T06:48:32.108Z,71.36
2019-04-14T06:49:32.138Z,71.01
2019-04-14T06:50:32.098Z,70.91
2019-04-14T06:51:32.088Z,70.05
2019-04-14T06:52:32.076Z,69.53
2019-04-14T06:53:32.085Z,69.40
2019-04-14T06:54:32.059Z,68.26
2019-04-14T06:55:32.107Z,67.85
2019-04-14T06:56:32.309Z,68.08
2019-04-14T06:57:32.022Z,68.49
2019-04-14T06:58:32.017Z,68.80
2019-04-14T06:59:32.886Z,68.77
2019-04-14T07:00:31.996Z,67.71
2019-04-14T07:01:32.062Z,67.61
2019-04-14T07:02:31.999Z,67.50
2019-04-14T07:03:31.955Z,66.96
2019-04-14T07:04:32.789Z,66.33
2019-04-14T07:05:31.947Z,65.89
2019-04-14T07:06:32.634Z,65.69
2019-04-14T07:07:31.936Z,65.14
2019-04-14T07:08:31.950Z,64.11
2019-04-14T07:09:32.621Z,64.76
2019-04-14T07:10:31.884Z,64.96
2019-04-14T07:11:32.197Z,64.83
2019-04-14T07:12:31.862Z,64.62
2019-04-14T07:13:32.454Z,64.62
2019-04-14T07:14:32.127Z,64.65
2019-04-14T07:15:31.838Z,65.27
2019-04-14T07:16:31.822Z,65.37
2019-04-14T07:17:32.104Z,65.37
2019-04-14T07:18:31.793Z,65.27
2019-04-14T07:19:31.913Z,65.48
2019-04-14T07:20:31.806Z,64.73
2019-04-14T07:21:31.764Z,63.35
2019-04-14T07:22:31.763Z,63.46
2019-04-14T07:23:31.753Z,63.71
2019-04-14T07:24:32.046Z,63.03
2019-04-14T07:25:31.931Z,61.46
2019-04-14T07:26:31.712Z,60.50
2019-04-14T07:27:31.702Z,60.06
2019-04-14T07:28:31.712Z,58.91
2019-04-14T07:29:31.710Z,58.03
2019-04-14T07:30:31.664Z,57.10
2019-04-14T07:31:32.113Z,56.70
2019-04-14T07:32:31.652Z,57.21
2019-04-14T07:33:31.639Z,56.93
2019-04-14T07:34:31.635Z,57.23
2019-04-14T07:35:31.611Z,56.34
2019-04-14T07:36:31.601Z,56.85
2019-04-14T07:37:31.661Z,56.85
2019-04-14T07:38:32.091Z,57.29
2019-04-14T07:39:31.620Z,58.54
2019-04-14T07:40:31.634Z,59.06
2019-04-14T07:41:31.601Z,58.59
2019-04-14T07:42:31.542Z,57.54
2019-04-14T07:43:31.620Z,57.13
2019-04-14T07:44:31.519Z,56.72
2019-04-14T07:45:31.791Z,57.00
2019-04-14T07:46:31.518Z,56.54
2019-04-14T07:47:31.489Z,55.28
2019-04-14T07:48:31.479Z,53.97
2019-04-14T07:49:32.864Z,52.90
2019-04-14T07:50:31.471Z,51.06
2019-04-14T07:51:31.449Z,52.83
2019-04-14T07:52:31.740Z,52.39
2019-04-14T07:53:31.429Z,50.42
2019-04-14T07:54:31.440Z,51.47
2019-04-14T07:55:31.539Z,51.75
2019-04-14T07:56:32.428Z,50.89
2019-04-14T07:57:31.389Z,49.13
2019-04-14T07:58:31.396Z,49.30
2019-04-14T07:59:31.650Z,50.42
2019-04-14T08:00:31.385Z,50.12
2019-04-14T08:01:31.479Z,50.01
2019-04-14T08:02:31.329Z,49.55
2019-04-14T08:03:31.328Z,48.72
2019-04-14T08:04:31.307Z,48.72
2019-04-14T08:05:31.318Z,48.39
2019-04-14T08:06:31.567Z,47.63
2019-04-14T08:07:32.289Z,47.20
2019-04-14T08:08:31.293Z,46.36
2019-04-14T08:09:31.247Z,45.00
2019-04-14T08:10:31.246Z,43.90
2019-04-14T08:11:31.979Z,44.65
2019-04-14T08:12:31.224Z,45.98
2019-04-14T08:13:31.537Z,45.85
2019-04-14T08:14:31.207Z,45.71
2019-04-14T08:15:31.387Z,44.77
2019-04-14T08:16:31.197Z,44.16
2019-04-14T08:17:31.169Z,43.71
2019-04-14T08:18:31.158Z,43.44
2019-04-14T08:19:31.198Z,43.63
2019-04-14T08:20:31.424Z,42.77
2019-04-14T08:21:31.139Z,42.66
2019-04-14T08:22:31.117Z,41.72
2019-04-14T08:23:31.871Z,41.40
2019-04-14T08:24:31.129Z,40.77
2019-04-14T08:25:31.160Z,39.86
2019-04-14T08:26:31.121Z,40.70
2019-04-14T08:27:31.355Z,41.11
2019-04-14T08:28:31.056Z,40.83
2019-04-14T08:29:31.046Z,42.41
2019-04-14T08:30:31.025Z,43.02
2019-04-14T08:31:31.442Z,42.80
2019-04-14T08:32:31.007Z,43.51
2019-04-14T08:33:30.995Z,42.55
2019-04-14T08:34:31.274Z,42.13
2019-04-14T08:35:31.967Z,41.50
2019-04-14T08:36:33.234Z,40.99
2019-04-14T08:37:32.035Z,40.79
2019-04-14T08:38:31.557Z,40.47
2019-04-14T08:39:30.962Z,40.34
2019-04-14T08:40:30.935Z,39.48
2019-04-14T08:41:31.235Z,38.65
2019-04-14T08:42:30.916Z,39.62
2019-04-14T08:43:31.125Z,40.36
2019-04-14T08:44:31.460Z,40.14
2019-04-14T08:45:30.894Z,40.34
2019-04-14T08:46:31.548Z,39.19
2019-04-14T08:47:30.941Z,39.33
2019-04-14T08:48:32.106Z,40.11
2019-04-14T08:49:31.751Z,40.02
2019-04-14T08:50:39.253Z,38.99
2019-04-14T08:51:31.805Z,39.07
2019-04-14T08:52:30.812Z,38.11
2019-04-14T08:53:30.784Z,37.10
2019-04-14T08:54:30.800Z,36.96
2019-04-14T08:55:31.168Z,36.52
2019-04-14T08:56:30.775Z,35.61
2019-04-14T08:57:30.743Z,35.61
2019-04-14T08:58:30.724Z,35.41
2019-04-14T08:59:30.714Z,35.31
2019-04-14T09:00:30.704Z,35.53
2019-04-14T09:01:31.606Z,35.85
2019-04-14T09:02:30.695Z,37.43
2019-04-14T09:03:30.687Z,37.54
2019-04-14T09:04:30.686Z,38.79
2019-04-14T09:05:30.655Z,38.67
2019-04-14T09:06:30.645Z,38.24
2019-04-14T09:07:30.767Z,38.65
2019-04-14T09:08:30.925Z,38.37
2019-04-14T09:09:30.652Z,37.74
2019-04-14T09:10:30.671Z,37.54
2019-04-14T09:11:30.596Z,37.74
2019-04-14T09:12:30.605Z,37.82
2019-04-14T09:13:30.695Z,37.96
2019-04-14T09:14:30.596Z,39.21
2019-04-14T09:15:30.994Z,38.39
2019-04-14T09:16:30.543Z,38.06
2019-04-14T09:17:30.525Z,38.68
2019-04-14T09:18:30.524Z,39.31
2019-04-14T09:19:30.703Z,39.51
2019-04-14T09:20:30.494Z,39.31
2019-04-14T09:21:31.794Z,39.96
2019-04-14T09:22:30.764Z,40.38
2019-04-14T09:23:30.482Z,40.06
2019-04-14T09:24:30.444Z,39.11
2019-04-14T09:25:30.584Z,37.84
2019-04-14T09:26:30.450Z,37.43
2019-04-14T09:27:30.435Z,38.18
2019-04-14T09:28:30.404Z,38.93
2019-04-14T09:29:30.821Z,39.64
2019-04-14T09:30:31.135Z,39.13
2019-04-14T09:31:31.236Z,40.84
2019-04-14T09:32:30.376Z,43.08
2019-04-14T09:33:31.122Z,45.08
2019-04-14T09:34:30.355Z,46.88
2019-04-14T09:35:30.344Z,47.20
2019-04-14T09:36:30.844Z,48.05
2019-04-14T09:37:30.473Z,49.19
2019-04-14T09:38:30.304Z,49.50
2019-04-14T09:39:30.285Z,49.48
2019-04-14T09:40:30.276Z,49.68
2019-04-14T09:41:30.264Z,50.30
2019-04-14T09:42:30.258Z,50.30
2019-04-14T09:43:30.685Z,49.15
2019-04-14T09:44:30.254Z,49.79
2019-04-14T09:45:30.237Z,50.09
2019-04-14T09:46:30.214Z,50.63
2019-04-14T09:47:30.203Z,50.71
2019-04-14T09:48:30.213Z,50.91
2019-04-14T09:49:31.156Z,50.27
2019-04-14T09:50:30.653Z,48.54
2019-04-14T09:51:30.178Z,49.07
2019-04-14T09:52:30.163Z,49.91
2019-04-14T09:53:30.182Z,50.22
2019-04-14T09:54:31.403Z,51.14
2019-04-14T09:55:30.483Z,50.63
2019-04-14T09:56:30.129Z,50.73
2019-04-14T09:57:30.473Z,50.52
2019-04-14T09:58:30.085Z,50.42
2019-04-14T09:59:30.075Z,50.83
2019-04-14T10:00:30.090Z,51.34
2019-04-14T10:01:30.793Z,51.45
2019-04-14T10:02:30.047Z,50.55
2019-04-14T10:03:30.032Z,50.55
2019-04-14T10:04:30.314Z,50.71
2019-04-14T10:05:30.593Z,48.93
2019-04-14T10:06:30.012Z,45.44
2019-04-14T10:07:30.113Z,45.81
2019-04-14T10:08:29.992Z,46.44
2019-04-14T10:09:29.977Z,44.04
2019-04-14T10:10:29.963Z,42.29
2019-04-14T10:11:30.302Z,43.00
2019-04-14T10:12:29.950Z,45.47
2019-04-14T10:13:30.093Z,46.22
2019-04-14T10:14:29.921Z,42.66
2019-04-14T10:15:30.505Z,41.96
2019-04-14T10:16:29.892Z,45.26
2019-04-14T10:17:30.518Z,46.94
2019-04-14T10:18:30.360Z,44.65
2019-04-14T10:19:30.001Z,42.29
2019-04-14T10:20:30.503Z,39.98
2019-04-14T10:21:29.862Z,38.92
2019-04-14T10:22:34.180Z,37.51
2019-04-14T10:23:29.815Z,36.59
2019-04-14T10:24:29.812Z,36.35
2019-04-14T10:25:30.122Z,36.51
2019-04-14T10:26:29.791Z,37.87
2019-04-14T10:27:29.772Z,36.91
2019-04-14T10:28:29.772Z,38.41
2019-04-14T10:29:29.756Z,40.19
2019-04-14T10:30:29.742Z,41.36
2019-04-14T10:31:29.836Z,42.43
2019-04-14T10:32:29.729Z,42.77
2019-04-14T10:33:29.915Z,43.53
2019-04-14T10:34:29.833Z,43.98
2019-04-14T10:35:30.035Z,44.31
2019-04-14T10:36:30.082Z,45.51
2019-04-14T10:37:30.124Z,47.47
2019-04-14T10:38:30.516Z,48.43
2019-04-14T10:39:29.853Z,48.33
2019-04-14T10:40:29.644Z,49.17
2019-04-14T10:41:29.651Z,49.35
2019-04-14T10:42:29.641Z,50.09
2019-04-14T10:43:29.652Z,48.02
2019-04-14T10:44:29.596Z,47.05
2019-04-14T10:45:30.752Z,47.05
2019-04-14T10:46:29.622Z,45.68
2019-04-14T10:47:29.563Z,45.32
2019-04-14T10:48:29.552Z,46.18
2019-04-14T10:49:29.604Z,46.59
2019-04-14T10:50:31.144Z,45.59
2019-04-14T10:51:31.531Z,41.62
2019-04-14T10:52:29.983Z,41.68
2019-04-14T10:53:29.499Z,40.20
2019-04-14T10:54:29.491Z,42.80
2019-04-14T10:55:29.509Z,42.29
2019-04-14T10:56:29.482Z,43.98
2019-04-14T10:57:29.452Z,43.16
2019-04-14T10:58:29.456Z,40.34
2019-04-14T10:59:30.801Z,41.64
2019-04-14T11:00:29.422Z,44.18
2019-04-14T11:01:29.453Z,45.59
2019-04-14T11:02:29.413Z,47.47
2019-04-14T11:03:29.421Z,48.54
2019-04-14T11:04:29.379Z,48.74
2019-04-14T11:05:29.373Z,48.74
2019-04-14T11:06:29.805Z,49.48
2019-04-14T11:07:30.231Z,49.27
2019-04-14T11:08:29.814Z,49.40
2019-04-14T11:09:29.321Z,48.21
2019-04-14T11:10:29.323Z,47.98
2019-04-14T11:11:29.304Z,47.24
2019-04-14T11:12:29.303Z,47.34
2019-04-14T11:13:30.661Z,47.09
2019-04-14T11:14:29.570Z,48.10
2019-04-14T11:15:29.261Z,48.56
2019-04-14T11:16:29.258Z,49.27
2019-04-14T11:17:29.240Z,49.91
2019-04-14T11:18:29.240Z,50.42
2019-04-14T11:19:29.401Z,49.83
2019-04-14T11:20:29.239Z,49.93
2019-04-14T11:21:41.920Z,50.67
2019-04-14T11:22:30.184Z,50.88
2019-04-14T11:23:29.203Z,51.10
2019-04-14T11:24:29.181Z,51.10
2019-04-14T11:25:29.283Z,51.95
2019-04-14T11:26:29.421Z,51.72
2019-04-14T11:27:29.129Z,51.80
2019-04-14T11:28:29.147Z,50.93
2019-04-14T11:29:29.113Z,51.04
2019-04-14T11:30:29.112Z,50.63
2019-04-14T11:31:29.120Z,51.37
2019-04-14T11:32:29.072Z,51.06
2019-04-14T11:33:29.060Z,50.73
2019-04-14T11:34:29.050Z,51.24
2019-04-14T11:35:29.049Z,50.71
2019-04-14T11:36:29.365Z,48.65
2019-04-14T11:37:29.058Z,46.89
2019-04-14T11:38:29.383Z,45.71
2019-04-14T11:39:29.000Z,44.97
2019-04-14T11:40:29.010Z,45.94
2019-04-14T11:41:28.979Z,46.56
2019-04-14T11:42:29.709Z,46.81
2019-04-14T11:43:29.032Z,47.86
2019-04-14T11:44:28.947Z,47.14
2019-04-14T11:45:30.297Z,47.60
2019-04-14T11:46:28.931Z,48.86
2019-04-14T11:47:28.920Z,49.81
2019-04-14T11:48:28.918Z,49.93
2019-04-14T11:49:28.935Z,50.24
2019-04-14T11:50:28.881Z,50.98
2019-04-14T11:51:28.882Z,51.95
2019-04-14T11:52:29.179Z,52.26
2019-04-14T11:53:28.850Z,52.56
2019-04-14T11:54:28.846Z,52.44
2019-04-14T11:55:28.889Z,51.90
2019-04-14T11:56:28.819Z,51.59
2019-04-14T11:57:28.808Z,52.03
2019-04-14T11:58:29.267Z,52.97
2019-04-14T11:59:29.719Z,53.39
2019-04-14T12:00:28.799Z,53.18
2019-04-14T12:01:28.827Z,53.69
2019-04-14T12:02:28.853Z,54.21
2019-04-14T12:03:28.892Z,53.49
2019-04-14T12:04:28.885Z,52.77
2019-04-14T12:05:28.719Z,52.90
2019-04-14T12:06:30.568Z,53.61
2019-04-14T12:07:28.728Z,53.92
2019-04-14T12:08:28.734Z,53.80
2019-04-14T12:09:28.706Z,53.80
2019-04-14T12:10:28.667Z,54.64
2019-04-14T12:11:28.658Z,54.33
2019-04-14T12:12:28.704Z,54.13
2019-04-14T12:13:29.028Z,53.72
2019-04-14T12:14:28.643Z,54.23
2019-04-14T12:15:28.624Z,52.80
2019-04-14T12:16:28.640Z,53.10
2019-04-14T12:17:28.631Z,52.69
2019-04-14T12:18:28.582Z,52.90
2019-04-14T12:19:28.634Z,52.39
2019-04-14T12:20:28.856Z,52.49
2019-04-14T12:21:28.800Z,52.36
2019-04-14T12:22:28.835Z,52.05
2019-04-14T12:23:28.537Z,52.23
2019-04-14T12:24:28.527Z,51.44
2019-04-14T12:25:28.544Z,51.54
2019-04-14T12:26:28.496Z,51.85
2019-04-14T12:27:28.847Z,52.34
2019-04-14T12:28:28.516Z,51.93
2019-04-14T12:29:28.466Z,51.82
2019-04-14T12:30:29.129Z,51.59
2019-04-14T12:31:28.721Z,50.52
2019-04-14T12:32:28.446Z,49.50
2019-04-14T12:33:28.434Z,49.50
2019-04-14T12:34:28.865Z,50.55
2019-04-14T12:35:28.403Z,50.67
2019-04-14T12:36:28.398Z,50.80
2019-04-14T12:37:28.428Z,50.82
2019-04-14T12:38:28.372Z,51.23
2019-04-14T12:39:28.364Z,51.23
2019-04-14T12:40:28.499Z,51.85
2019-04-14T12:41:29.363Z,52.05
2019-04-14T12:42:28.355Z,52.36
2019-04-14T12:43:29.164Z,52.56
2019-04-14T12:44:28.313Z,52.77
2019-04-14T12:45:28.379Z,52.85
2019-04-14T12:46:29.758Z,52.64
2019-04-14T12:47:28.282Z,52.36
2019-04-14T12:48:29.307Z,53.08
2019-04-14T12:49:28.453Z,52.97
2019-04-14T12:50:28.581Z,53.39
2019-04-14T12:51:28.255Z,53.80
2019-04-14T12:52:29.804Z,54.10
2019-04-14T12:53:28.225Z,54.02
2019-04-14T12:54:28.253Z,53.92
2019-04-14T12:55:28.916Z,54.57
2019-04-14T12:56:28.179Z,55.28
2019-04-14T12:57:29.064Z,54.66
2019-04-14T12:58:28.186Z,54.57
2019-04-14T12:59:28.765Z,54.46
2019-04-14T13:00:28.244Z,55.08
2019-04-14T13:01:28.554Z,55.08
2019-04-14T13:02:28.249Z,55.38
2019-04-14T13:03:28.126Z,55.49
2019-04-14T13:04:28.102Z,55.08
2019-04-14T13:05:28.093Z,55.30
2019-04-14T13:06:28.860Z,55.82
2019-04-14T13:07:29.063Z,55.85
2019-04-14T13:08:29.503Z,56.05
2019-04-14T13:09:28.078Z,56.36
2019-04-14T13:10:28.062Z,56.59